sensor_id;sensor_type;location;lat;lon;timestamp;P1;durP1;ratioP1;P2;durP2;ratioP2
62798;SDS011;48842;51.046;13.796;2023-04-06T00:00:35;5.33;;;4.80;;
62798;SDS011;48842;51.046;13.796;2023-04-06T00:03:00;8.43;;;5.10;;
62798;SDS011;48842;51.046;13.796;2023-04-06T00:05:26;4.93;;;4.47;;
62798;SDS011;48842;51.046;13.796;2023-04-06T00:07:52;5.80;;;5.23;;
62798;SDS011;48842;51.046;13.796;2023-04-06T00:10:19;14.20;;;5.00;;
62798;SDS011;48842;51.046;13.796;2023-04-06T00:12:44;12.10;;;4.90;;
62798;SDS011;48842;51.046;13.796;2023-04-06T00:15:09;5.93;;;5.13;;
62798;SDS011;48842;51.046;13.796;2023-04-06T00:17:35;6.13;;;5.03;;
62798;SDS011;48842;51.046;13.796;2023-04-06T00:20:00;5.50;;;4.50;;
62798;SDS011;48842;51.046;13.796;2023-04-06T00:22:25;8.27;;;5.13;;
62798;SDS011;48842;51.046;13.796;2023-04-06T00:24:51;5.70;;;5.13;;
62798;SDS011;48842;51.046;13.796;2023-04-06T00:27:16;6.63;;;5.60;;
62798;SDS011;48842;51.046;13.796;2023-04-06T00:29:41;5.50;;;4.90;;
62798;SDS011;48842;51.046;13.796;2023-04-06T00:32:06;5.40;;;4.90;;
62798;SDS011;48842;51.046;13.796;2023-04-06T00:34:32;8.77;;;5.30;;
62798;SDS011;48842;51.046;13.796;2023-04-06T00:36:57;5.80;;;4.80;;
62798;SDS011;48842;51.046;13.796;2023-04-06T00:39:22;8.43;;;5.70;;
62798;SDS011;48842;51.046;13.796;2023-04-06T00:41:49;7.87;;;4.50;;
62798;SDS011;48842;51.046;13.796;2023-04-06T00:44:16;6.63;;;4.97;;
62798;SDS011;48842;51.046;13.796;2023-04-06T00:46:41;6.30;;;5.07;;
62798;SDS011;48842;51.046;13.796;2023-04-06T00:49:07;5.03;;;4.53;;
62798;SDS011;48842;51.046;13.796;2023-04-06T00:51:32;8.77;;;5.37;;
62798;SDS011;48842;51.046;13.796;2023-04-06T00:53:57;6.73;;;5.07;;
62798;SDS011;48842;51.046;13.796;2023-04-06T00:56:22;6.07;;;5.47;;
62798;SDS011;48842;51.046;13.796;2023-04-06T00:58:48;5.77;;;5.17;;
62798;SDS011;48842;51.046;13.796;2023-04-06T01:01:14;4.70;;;4.20;;
62798;SDS011;48842;51.046;13.796;2023-04-06T01:03:40;5.00;;;4.50;;
62798;SDS011;48842;51.046;13.796;2023-04-06T01:06:07;5.63;;;4.87;;
62798;SDS011;48842;51.046;13.796;2023-04-06T01:08:32;6.23;;;4.47;;
62798;SDS011;48842;51.046;13.796;2023-04-06T01:10:59;7.73;;;5.00;;
62798;SDS011;48842;51.046;13.796;2023-04-06T01:13:25;10.90;;;5.40;;
62798;SDS011;48842;51.046;13.796;2023-04-06T01:15:51;7.50;;;4.30;;
62798;SDS011;48842;51.046;13.796;2023-04-06T01:18:16;4.60;;;4.20;;
62798;SDS011;48842;51.046;13.796;2023-04-06T01:20:41;7.83;;;5.17;;
62798;SDS011;48842;51.046;13.796;2023-04-06T01:23:07;6.77;;;4.70;;
62798;SDS011;48842;51.046;13.796;2023-04-06T01:25:32;6.17;;;4.33;;
62798;SDS011;48842;51.046;13.796;2023-04-06T01:27:57;9.17;;;4.73;;
62798;SDS011;48842;51.046;13.796;2023-04-06T01:30:22;5.97;;;4.57;;
62798;SDS011;48842;51.046;13.796;2023-04-06T01:32:48;7.67;;;4.83;;
62798;SDS011;48842;51.046;13.796;2023-04-06T01:35:13;6.47;;;5.83;;
62798;SDS011;48842;51.046;13.796;2023-04-06T01:37:38;5.47;;;4.73;;
62798;SDS011;48842;51.046;13.796;2023-04-06T01:40:03;6.80;;;4.50;;
62798;SDS011;48842;51.046;13.796;2023-04-06T01:42:29;5.73;;;5.17;;
62798;SDS011;48842;51.046;13.796;2023-04-06T01:44:55;5.83;;;4.40;;
62798;SDS011;48842;51.046;13.796;2023-04-06T01:47:20;5.83;;;5.17;;
62798;SDS011;48842;51.046;13.796;2023-04-06T01:49:45;6.70;;;4.83;;
62798;SDS011;48842;51.046;13.796;2023-04-06T01:52:11;4.80;;;4.33;;
62798;SDS011;48842;51.046;13.796;2023-04-06T01:54:36;6.00;;;4.47;;
62798;SDS011;48842;51.046;13.796;2023-04-06T01:57:01;6.70;;;4.97;;
62798;SDS011;48842;51.046;13.796;2023-04-06T01:59:26;8.77;;;5.60;;
62798;SDS011;48842;51.046;13.796;2023-04-06T02:01:52;7.80;;;5.70;;
62798;SDS011;48842;51.046;13.796;2023-04-06T02:04:17;8.23;;;5.53;;
62798;SDS011;48842;51.046;13.796;2023-04-06T02:06:42;6.20;;;5.10;;
62798;SDS011;48842;51.046;13.796;2023-04-06T02:09:07;5.67;;;5.10;;
62798;SDS011;48842;51.046;13.796;2023-04-06T02:11:32;4.73;;;4.33;;
62798;SDS011;48842;51.046;13.796;2023-04-06T02:13:58;11.10;;;5.77;;
62798;SDS011;48842;51.046;13.796;2023-04-06T02:16:25;8.97;;;5.77;;
62798;SDS011;48842;51.046;13.796;2023-04-06T02:18:50;6.53;;;4.93;;
62798;SDS011;48842;51.046;13.796;2023-04-06T02:21:16;6.30;;;5.20;;
62798;SDS011;48842;51.046;13.796;2023-04-06T02:23:44;7.50;;;4.97;;
62798;SDS011;48842;51.046;13.796;2023-04-06T02:26:10;5.30;;;4.80;;
62798;SDS011;48842;51.046;13.796;2023-04-06T02:28:35;5.17;;;4.67;;
62798;SDS011;48842;51.046;13.796;2023-04-06T02:31:01;8.70;;;6.27;;
62798;SDS011;48842;51.046;13.796;2023-04-06T02:33:26;12.40;;;5.20;;
62798;SDS011;48842;51.046;13.796;2023-04-06T02:35:51;5.10;;;4.60;;
62798;SDS011;48842;51.046;13.796;2023-04-06T02:38:16;4.50;;;4.20;;
62798;SDS011;48842;51.046;13.796;2023-04-06T02:40:41;9.07;;;5.20;;
62798;SDS011;48842;51.046;13.796;2023-04-06T02:43:07;9.60;;;5.53;;
62798;SDS011;48842;51.046;13.796;2023-04-06T02:45:32;6.60;;;5.10;;
62798;SDS011;48842;51.046;13.796;2023-04-06T02:47:57;6.20;;;5.37;;
62798;SDS011;48842;51.046;13.796;2023-04-06T02:50:22;9.77;;;5.70;;
62798;SDS011;48842;51.046;13.796;2023-04-06T02:52:48;7.50;;;5.70;;
62798;SDS011;48842;51.046;13.796;2023-04-06T02:55:13;7.40;;;5.33;;
62798;SDS011;48842;51.046;13.796;2023-04-06T02:57:38;7.93;;;5.43;;
62798;SDS011;48842;51.046;13.796;2023-04-06T03:00:04;15.07;;;5.83;;
62798;SDS011;48842;51.046;13.796;2023-04-06T03:02:29;6.17;;;4.63;;
62798;SDS011;48842;51.046;13.796;2023-04-06T03:04:55;7.27;;;6.03;;
62798;SDS011;48842;51.046;13.796;2023-04-06T03:07:20;7.10;;;5.50;;
62798;SDS011;48842;51.046;13.796;2023-04-06T03:09:45;6.00;;;5.40;;
62798;SDS011;48842;51.046;13.796;2023-04-06T03:12:10;9.63;;;5.40;;
62798;SDS011;48842;51.046;13.796;2023-04-06T03:14:36;8.63;;;6.20;;
62798;SDS011;48842;51.046;13.796;2023-04-06T03:17:01;7.23;;;6.30;;
62798;SDS011;48842;51.046;13.796;2023-04-06T03:19:27;6.80;;;5.33;;
62798;SDS011;48842;51.046;13.796;2023-04-06T03:21:52;8.90;;;5.97;;
62798;SDS011;48842;51.046;13.796;2023-04-06T03:24:17;7.00;;;6.10;;
62798;SDS011;48842;51.046;13.796;2023-04-06T03:26:43;8.20;;;5.10;;
62798;SDS011;48842;51.046;13.796;2023-04-06T03:29:08;8.90;;;6.90;;
62798;SDS011;48842;51.046;13.796;2023-04-06T03:31:33;8.50;;;5.47;;
62798;SDS011;48842;51.046;13.796;2023-04-06T03:33:58;8.83;;;6.10;;
62798;SDS011;48842;51.046;13.796;2023-04-06T03:36:24;6.87;;;5.00;;
62798;SDS011;48842;51.046;13.796;2023-04-06T03:38:51;7.95;;;5.40;;
62798;SDS011;48842;51.046;13.796;2023-04-06T03:41:18;6.10;;;5.57;;
62798;SDS011;48842;51.046;13.796;2023-04-06T03:43:43;7.97;;;6.33;;
62798;SDS011;48842;51.046;13.796;2023-04-06T03:46:08;5.53;;;5.03;;
62798;SDS011;48842;51.046;13.796;2023-04-06T03:48:34;8.40;;;6.10;;
62798;SDS011;48842;51.046;13.796;2023-04-06T03:50:59;5.70;;;5.10;;
62798;SDS011;48842;51.046;13.796;2023-04-06T03:53:25;12.67;;;5.80;;
62798;SDS011;48842;51.046;13.796;2023-04-06T03:55:50;12.13;;;6.40;;
62798;SDS011;48842;51.046;13.796;2023-04-06T03:58:15;9.53;;;5.33;;
62798;SDS011;48842;51.046;13.796;2023-04-06T04:00:40;6.77;;;5.40;;
62798;SDS011;48842;51.046;13.796;2023-04-06T04:03:06;10.20;;;5.67;;
62798;SDS011;48842;51.046;13.796;2023-04-06T04:05:31;5.90;;;5.10;;
62798;SDS011;48842;51.046;13.796;2023-04-06T04:07:56;7.93;;;5.90;;
62798;SDS011;48842;51.046;13.796;2023-04-06T04:10:21;8.33;;;6.23;;
62798;SDS011;48842;51.046;13.796;2023-04-06T04:12:47;9.07;;;5.83;;
62798;SDS011;48842;51.046;13.796;2023-04-06T04:15:12;9.80;;;5.83;;
62798;SDS011;48842;51.046;13.796;2023-04-06T04:17:37;8.97;;;6.50;;
62798;SDS011;48842;51.046;13.796;2023-04-06T04:20:03;7.37;;;5.57;;
62798;SDS011;48842;51.046;13.796;2023-04-06T04:22:28;7.00;;;5.80;;
62798;SDS011;48842;51.046;13.796;2023-04-06T04:24:53;8.23;;;5.57;;
62798;SDS011;48842;51.046;13.796;2023-04-06T04:27:19;10.70;;;6.13;;
62798;SDS011;48842;51.046;13.796;2023-04-06T04:29:44;13.43;;;7.70;;
62798;SDS011;48842;51.046;13.796;2023-04-06T04:32:10;14.00;;;7.70;;
62798;SDS011;48842;51.046;13.796;2023-04-06T04:34:35;8.27;;;6.47;;
62798;SDS011;48842;51.046;13.796;2023-04-06T04:37:00;6.77;;;6.03;;
62798;SDS011;48842;51.046;13.796;2023-04-06T04:39:25;7.33;;;6.40;;
62798;SDS011;48842;51.046;13.796;2023-04-06T04:41:51;12.00;;;6.80;;
62798;SDS011;48842;51.046;13.796;2023-04-06T04:44:16;8.77;;;6.63;;
62798;SDS011;48842;51.046;13.796;2023-04-06T04:46:41;8.73;;;6.10;;
62798;SDS011;48842;51.046;13.796;2023-04-06T04:49:06;10.07;;;6.40;;
62798;SDS011;48842;51.046;13.796;2023-04-06T04:51:32;10.37;;;6.20;;
62798;SDS011;48842;51.046;13.796;2023-04-06T04:53:57;9.63;;;6.40;;
62798;SDS011;48842;51.046;13.796;2023-04-06T04:56:22;9.33;;;6.60;;
62798;SDS011;48842;51.046;13.796;2023-04-06T04:58:48;9.73;;;6.00;;
62798;SDS011;48842;51.046;13.796;2023-04-06T05:01:13;10.33;;;6.50;;
62798;SDS011;48842;51.046;13.796;2023-04-06T05:03:39;11.50;;;6.67;;
62798;SDS011;48842;51.046;13.796;2023-04-06T05:06:05;11.27;;;6.90;;
62798;SDS011;48842;51.046;13.796;2023-04-06T05:08:30;7.33;;;6.60;;
62798;SDS011;48842;51.046;13.796;2023-04-06T05:10:56;7.90;;;5.47;;
62798;SDS011;48842;51.046;13.796;2023-04-06T05:13:21;7.83;;;7.03;;
62798;SDS011;48842;51.046;13.796;2023-04-06T05:15:47;9.10;;;7.10;;
62798;SDS011;48842;51.046;13.796;2023-04-06T05:18:12;6.30;;;5.30;;
62798;SDS011;48842;51.046;13.796;2023-04-06T05:20:38;8.40;;;6.70;;
62798;SDS011;48842;51.046;13.796;2023-04-06T05:23:03;11.68;;;6.32;;
62798;SDS011;48842;51.046;13.796;2023-04-06T05:25:29;9.10;;;6.20;;
62798;SDS011;48842;51.046;13.796;2023-04-06T05:27:55;8.00;;;6.20;;
62798;SDS011;48842;51.046;13.796;2023-04-06T05:30:20;14.77;;;6.80;;
62798;SDS011;48842;51.046;13.796;2023-04-06T05:32:46;10.03;;;6.53;;
62798;SDS011;48842;51.046;13.796;2023-04-06T05:35:11;8.37;;;6.80;;
62798;SDS011;48842;51.046;13.796;2023-04-06T05:37:37;7.83;;;6.33;;
62798;SDS011;48842;51.046;13.796;2023-04-06T05:40:02;10.30;;;6.30;;
62798;SDS011;48842;51.046;13.796;2023-04-06T05:42:35;15.80;;;6.80;;
62798;SDS011;48842;51.046;13.796;2023-04-06T05:45:01;9.20;;;6.13;;
62798;SDS011;48842;51.046;13.796;2023-04-06T05:47:27;9.10;;;6.17;;
62798;SDS011;48842;51.046;13.796;2023-04-06T05:49:52;11.67;;;6.67;;
62798;SDS011;48842;51.046;13.796;2023-04-06T05:52:17;11.80;;;7.13;;
62798;SDS011;48842;51.046;13.796;2023-04-06T05:54:42;6.97;;;6.27;;
62798;SDS011;48842;51.046;13.796;2023-04-06T05:57:07;10.67;;;6.73;;
62798;SDS011;48842;51.046;13.796;2023-04-06T05:59:33;10.73;;;7.53;;
62798;SDS011;48842;51.046;13.796;2023-04-06T06:01:58;10.23;;;7.43;;
62798;SDS011;48842;51.046;13.796;2023-04-06T06:04:23;10.53;;;7.17;;
62798;SDS011;48842;51.046;13.796;2023-04-06T06:06:48;11.73;;;6.80;;
62798;SDS011;48842;51.046;13.796;2023-04-06T06:09:14;13.10;;;7.50;;
62798;SDS011;48842;51.046;13.796;2023-04-06T06:11:39;8.30;;;5.73;;
62798;SDS011;48842;51.046;13.796;2023-04-06T06:14:05;10.30;;;6.80;;
62798;SDS011;48842;51.046;13.796;2023-04-06T06:16:31;22.57;;;6.60;;
62798;SDS011;48842;51.046;13.796;2023-04-06T06:18:56;11.60;;;6.33;;
62798;SDS011;48842;51.046;13.796;2023-04-06T06:21:21;13.87;;;6.43;;
62798;SDS011;48842;51.046;13.796;2023-04-06T06:23:46;7.10;;;6.03;;
62798;SDS011;48842;51.046;13.796;2023-04-06T06:26:14;11.20;;;6.40;;
62798;SDS011;48842;51.046;13.796;2023-04-06T06:28:39;7.77;;;6.00;;
62798;SDS011;48842;51.046;13.796;2023-04-06T06:31:04;11.63;;;7.20;;
62798;SDS011;48842;51.046;13.796;2023-04-06T06:33:30;41.07;;;7.07;;
62798;SDS011;48842;51.046;13.796;2023-04-06T06:35:55;18.33;;;6.73;;
62798;SDS011;48842;51.046;13.796;2023-04-06T06:38:20;7.00;;;6.30;;
62798;SDS011;48842;51.046;13.796;2023-04-06T06:40:45;10.67;;;6.17;;
62798;SDS011;48842;51.046;13.796;2023-04-06T06:43:11;13.90;;;6.60;;
62798;SDS011;48842;51.046;13.796;2023-04-06T06:45:36;9.70;;;6.80;;
62798;SDS011;48842;51.046;13.796;2023-04-06T06:48:01;8.17;;;5.90;;
62798;SDS011;48842;51.046;13.796;2023-04-06T06:50:27;10.13;;;5.83;;
62798;SDS011;48842;51.046;13.796;2023-04-06T06:52:52;16.53;;;7.53;;
62798;SDS011;48842;51.046;13.796;2023-04-06T06:55:17;10.30;;;6.83;;
62798;SDS011;48842;51.046;13.796;2023-04-06T06:57:44;8.50;;;7.07;;
62798;SDS011;48842;51.046;13.796;2023-04-06T07:00:11;9.50;;;6.63;;
62798;SDS011;48842;51.046;13.796;2023-04-06T07:02:38;14.00;;;6.27;;
62798;SDS011;48842;51.046;13.796;2023-04-06T07:05:03;7.50;;;6.23;;
62798;SDS011;48842;51.046;13.796;2023-04-06T07:07:30;9.70;;;6.40;;
62798;SDS011;48842;51.046;13.796;2023-04-06T07:09:56;8.10;;;6.70;;
62798;SDS011;48842;51.046;13.796;2023-04-06T07:12:21;13.43;;;6.97;;
62798;SDS011;48842;51.046;13.796;2023-04-06T07:14:47;7.20;;;6.13;;
62798;SDS011;48842;51.046;13.796;2023-04-06T07:17:12;14.80;;;5.97;;
62798;SDS011;48842;51.046;13.796;2023-04-06T07:19:37;8.40;;;5.93;;
62798;SDS011;48842;51.046;13.796;2023-04-06T07:22:03;7.23;;;6.40;;
62798;SDS011;48842;51.046;13.796;2023-04-06T07:24:28;10.70;;;5.80;;
62798;SDS011;48842;51.046;13.796;2023-04-06T07:26:54;7.80;;;6.17;;
62798;SDS011;48842;51.046;13.796;2023-04-06T07:29:20;7.40;;;6.03;;
62798;SDS011;48842;51.046;13.796;2023-04-06T07:31:45;10.50;;;6.10;;
62798;SDS011;48842;51.046;13.796;2023-04-06T07:34:11;6.60;;;5.93;;
62798;SDS011;48842;51.046;13.796;2023-04-06T07:36:36;9.53;;;6.17;;
62798;SDS011;48842;51.046;13.796;2023-04-06T07:39:02;8.17;;;6.73;;
62798;SDS011;48842;51.046;13.796;2023-04-06T07:41:27;8.47;;;6.30;;
62798;SDS011;48842;51.046;13.796;2023-04-06T07:43:52;10.80;;;7.00;;
62798;SDS011;48842;51.046;13.796;2023-04-06T07:46:17;8.90;;;6.70;;
62798;SDS011;48842;51.046;13.796;2023-04-06T07:48:43;9.03;;;6.50;;
62798;SDS011;48842;51.046;13.796;2023-04-06T07:51:08;6.93;;;5.10;;
62798;SDS011;48842;51.046;13.796;2023-04-06T07:53:35;11.30;;;6.50;;
62798;SDS011;48842;51.046;13.796;2023-04-06T07:56:00;7.40;;;6.50;;
62798;SDS011;48842;51.046;13.796;2023-04-06T07:58:26;8.90;;;5.60;;
62798;SDS011;48842;51.046;13.796;2023-04-06T08:00:51;10.00;;;5.70;;
62798;SDS011;48842;51.046;13.796;2023-04-06T08:03:16;8.00;;;5.50;;
62798;SDS011;48842;51.046;13.796;2023-04-06T08:05:42;8.47;;;6.27;;
62798;SDS011;48842;51.046;13.796;2023-04-06T08:08:07;10.47;;;6.57;;
62798;SDS011;48842;51.046;13.796;2023-04-06T08:10:33;7.87;;;6.17;;
62798;SDS011;48842;51.046;13.796;2023-04-06T08:12:59;8.73;;;6.63;;
62798;SDS011;48842;51.046;13.796;2023-04-06T08:15:24;10.30;;;5.63;;
62798;SDS011;48842;51.046;13.796;2023-04-06T08:17:50;10.40;;;6.27;;
62798;SDS011;48842;51.046;13.796;2023-04-06T08:20:15;6.70;;;5.83;;
62798;SDS011;48842;51.046;13.796;2023-04-06T08:22:40;8.93;;;6.37;;
62798;SDS011;48842;51.046;13.796;2023-04-06T08:25:05;8.67;;;5.77;;
62798;SDS011;48842;51.046;13.796;2023-04-06T08:27:31;6.77;;;5.57;;
62798;SDS011;48842;51.046;13.796;2023-04-06T08:29:56;5.73;;;5.23;;
62798;SDS011;48842;51.046;13.796;2023-04-06T08:32:21;7.47;;;5.80;;
62798;SDS011;48842;51.046;13.796;2023-04-06T08:34:46;9.70;;;4.70;;
62798;SDS011;48842;51.046;13.796;2023-04-06T08:37:12;6.27;;;5.63;;
62798;SDS011;48842;51.046;13.796;2023-04-06T08:39:37;6.10;;;5.50;;
62798;SDS011;48842;51.046;13.796;2023-04-06T08:42:02;6.57;;;5.87;;
62798;SDS011;48842;51.046;13.796;2023-04-06T08:44:28;7.17;;;5.60;;
62798;SDS011;48842;51.046;13.796;2023-04-06T08:46:54;4.63;;;4.23;;
62798;SDS011;48842;51.046;13.796;2023-04-06T08:49:20;7.90;;;5.50;;
62798;SDS011;48842;51.046;13.796;2023-04-06T08:51:46;6.47;;;4.90;;
62798;SDS011;48842;51.046;13.796;2023-04-06T08:54:12;6.33;;;5.00;;
62798;SDS011;48842;51.046;13.796;2023-04-06T08:56:37;5.20;;;4.80;;
62798;SDS011;48842;51.046;13.796;2023-04-06T08:59:03;9.43;;;5.27;;
62798;SDS011;48842;51.046;13.796;2023-04-06T09:01:30;5.37;;;4.70;;
62798;SDS011;48842;51.046;13.796;2023-04-06T09:03:58;6.60;;;5.00;;
62798;SDS011;48842;51.046;13.796;2023-04-06T09:06:25;4.37;;;4.03;;
62798;SDS011;48842;51.046;13.796;2023-04-06T09:08:51;5.07;;;4.53;;
62798;SDS011;48842;51.046;13.796;2023-04-06T09:11:17;5.80;;;4.63;;
62798;SDS011;48842;51.046;13.796;2023-04-06T09:16:14;8.60;;;4.47;;
62798;SDS011;48842;51.046;13.796;2023-04-06T09:18:40;6.07;;;4.63;;
62798;SDS011;48842;51.046;13.796;2023-04-06T09:21:06;5.23;;;4.80;;
62798;SDS011;48842;51.046;13.796;2023-04-06T09:23:33;5.10;;;4.37;;
62798;SDS011;48842;51.046;13.796;2023-04-06T09:26:05;4.40;;;4.10;;
62798;SDS011;48842;51.046;13.796;2023-04-06T09:28:40;5.47;;;4.60;;
62798;SDS011;48842;51.046;13.796;2023-04-06T09:31:10;6.10;;;4.30;;
62798;SDS011;48842;51.046;13.796;2023-04-06T09:33:39;4.60;;;4.30;;
62798;SDS011;48842;51.046;13.796;2023-04-06T09:36:06;5.87;;;5.27;;
62798;SDS011;48842;51.046;13.796;2023-04-06T09:38:32;4.70;;;4.30;;
62798;SDS011;48842;51.046;13.796;2023-04-06T09:40:57;4.70;;;4.13;;
62798;SDS011;48842;51.046;13.796;2023-04-06T09:43:28;4.60;;;4.17;;
62798;SDS011;48842;51.046;13.796;2023-04-06T09:45:55;4.40;;;4.00;;
62798;SDS011;48842;51.046;13.796;2023-04-06T09:48:20;4.43;;;4.03;;
62798;SDS011;48842;51.046;13.796;2023-04-06T09:50:50;4.43;;;4.13;;
62798;SDS011;48842;51.046;13.796;2023-04-06T09:53:23;5.47;;;3.83;;
62798;SDS011;48842;51.046;13.796;2023-04-06T09:55:51;3.90;;;3.60;;
62798;SDS011;48842;51.046;13.796;2023-04-06T09:58:20;4.43;;;4.00;;
62798;SDS011;48842;51.046;13.796;2023-04-06T10:00:54;5.47;;;4.40;;
62798;SDS011;48842;51.046;13.796;2023-04-06T10:06:13;8.47;;;4.27;;
62798;SDS011;48842;51.046;13.796;2023-04-06T10:08:39;4.80;;;3.90;;
62798;SDS011;48842;51.046;13.796;2023-04-06T10:11:06;5.57;;;3.87;;
62798;SDS011;48842;51.046;13.796;2023-04-06T10:13:31;8.53;;;3.57;;
62798;SDS011;48842;51.046;13.796;2023-04-06T10:15:57;7.40;;;3.70;;
62798;SDS011;48842;51.046;13.796;2023-04-06T10:18:25;3.83;;;3.53;;
62798;SDS011;48842;51.046;13.796;2023-04-06T10:20:55;4.00;;;3.70;;
62798;SDS011;48842;51.046;13.796;2023-04-06T10:23:32;4.43;;;3.97;;
62798;SDS011;48842;51.046;13.796;2023-04-06T10:26:00;7.40;;;4.07;;
62798;SDS011;48842;51.046;13.796;2023-04-06T10:28:30;6.30;;;3.83;;
62798;SDS011;48842;51.046;13.796;2023-04-06T10:30:58;3.60;;;3.30;;
62798;SDS011;48842;51.046;13.796;2023-04-06T10:33:24;3.70;;;3.40;;
62798;SDS011;48842;51.046;13.796;2023-04-06T10:35:50;4.33;;;4.03;;
62798;SDS011;48842;51.046;13.796;2023-04-06T10:38:15;3.73;;;3.40;;
62798;SDS011;48842;51.046;13.796;2023-04-06T10:40:45;4.30;;;3.83;;
62798;SDS011;48842;51.046;13.796;2023-04-06T10:43:13;4.53;;;4.07;;
62798;SDS011;48842;51.046;13.796;2023-04-06T10:45:54;4.27;;;3.87;;
62798;SDS011;48842;51.046;13.796;2023-04-06T10:48:21;4.30;;;3.90;;
62798;SDS011;48842;51.046;13.796;2023-04-06T10:50:52;5.00;;;3.70;;
62798;SDS011;48842;51.046;13.796;2023-04-06T10:53:22;3.40;;;3.20;;
62798;SDS011;48842;51.046;13.796;2023-04-06T10:55:49;4.17;;;3.50;;
62798;SDS011;48842;51.046;13.796;2023-04-06T10:58:16;3.87;;;3.60;;
62798;SDS011;48842;51.046;13.796;2023-04-06T11:00:44;3.83;;;3.30;;
62798;SDS011;48842;51.046;13.796;2023-04-06T11:03:11;3.43;;;3.20;;
62798;SDS011;48842;51.046;13.796;2023-04-06T11:05:36;3.00;;;2.73;;
62798;SDS011;48842;51.046;13.796;2023-04-06T11:08:01;3.90;;;3.47;;
62798;SDS011;48842;51.046;13.796;2023-04-06T11:10:26;3.70;;;3.10;;
62798;SDS011;48842;51.046;13.796;2023-04-06T11:12:54;4.63;;;3.00;;
62798;SDS011;48842;51.046;13.796;2023-04-06T11:15:21;2.93;;;2.77;;
62798;SDS011;48842;51.046;13.796;2023-04-06T11:17:46;3.63;;;3.30;;
62798;SDS011;48842;51.046;13.796;2023-04-06T11:20:11;4.10;;;3.63;;
62798;SDS011;48842;51.046;13.796;2023-04-06T11:22:47;4.07;;;3.77;;
62798;SDS011;48842;51.046;13.796;2023-04-06T11:25:13;6.43;;;4.07;;
62798;SDS011;48842;51.046;13.796;2023-04-06T11:27:39;15.93;;;3.97;;
62798;SDS011;48842;51.046;13.796;2023-04-06T11:30:05;4.17;;;3.80;;
62798;SDS011;48842;51.046;13.796;2023-04-06T11:32:41;6.43;;;3.60;;
62798;SDS011;48842;51.046;13.796;2023-04-06T11:35:10;6.30;;;4.87;;
62798;SDS011;48842;51.046;13.796;2023-04-06T11:37:36;6.13;;;4.00;;
62798;SDS011;48842;51.046;13.796;2023-04-06T11:40:01;3.73;;;3.53;;
62798;SDS011;48842;51.046;13.796;2023-04-06T11:42:28;3.83;;;3.43;;
62798;SDS011;48842;51.046;13.796;2023-04-06T11:44:55;4.23;;;3.87;;
62798;SDS011;48842;51.046;13.796;2023-04-06T11:47:27;3.60;;;3.30;;
62798;SDS011;48842;51.046;13.796;2023-04-06T11:49:53;4.87;;;3.87;;
62798;SDS011;48842;51.046;13.796;2023-04-06T11:52:19;3.40;;;3.20;;
62798;SDS011;48842;51.046;13.796;2023-04-06T11:54:45;3.77;;;3.53;;
62798;SDS011;48842;51.046;13.796;2023-04-06T11:57:11;4.77;;;3.47;;
62798;SDS011;48842;51.046;13.796;2023-04-06T11:59:36;4.40;;;4.00;;
62798;SDS011;48842;51.046;13.796;2023-04-06T12:02:03;4.20;;;3.90;;
62798;SDS011;48842;51.046;13.796;2023-04-06T12:04:29;6.80;;;4.00;;
62798;SDS011;48842;51.046;13.796;2023-04-06T12:06:55;3.87;;;3.57;;
62798;SDS011;48842;51.046;13.796;2023-04-06T12:09:20;3.93;;;3.63;;
62798;SDS011;48842;51.046;13.796;2023-04-06T12:11:45;3.40;;;3.13;;
62798;SDS011;48842;51.046;13.796;2023-04-06T12:14:11;7.90;;;4.10;;
62798;SDS011;48842;51.046;13.796;2023-04-06T12:16:37;3.70;;;3.50;;
62798;SDS011;48842;51.046;13.796;2023-04-06T12:19:02;11.53;;;3.90;;
62798;SDS011;48842;51.046;13.796;2023-04-06T12:21:28;6.57;;;3.30;;
62798;SDS011;48842;51.046;13.796;2023-04-06T12:23:53;4.83;;;3.67;;
62798;SDS011;48842;51.046;13.796;2023-04-06T12:26:19;3.57;;;3.27;;
62798;SDS011;48842;51.046;13.796;2023-04-06T12:28:45;3.67;;;3.37;;
62798;SDS011;48842;51.046;13.796;2023-04-06T12:31:20;3.50;;;3.20;;
62798;SDS011;48842;51.046;13.796;2023-04-06T12:33:47;3.70;;;3.40;;
62798;SDS011;48842;51.046;13.796;2023-04-06T12:36:17;3.43;;;3.13;;
62798;SDS011;48842;51.046;13.796;2023-04-06T12:38:44;3.33;;;2.77;;
62798;SDS011;48842;51.046;13.796;2023-04-06T12:41:10;10.30;;;3.47;;
62798;SDS011;48842;51.046;13.796;2023-04-06T12:43:36;3.27;;;2.87;;
62798;SDS011;48842;51.046;13.796;2023-04-06T12:46:01;4.33;;;2.83;;
62798;SDS011;48842;51.046;13.796;2023-04-06T12:48:26;3.67;;;3.37;;
62798;SDS011;48842;51.046;13.796;2023-04-06T12:51:00;3.07;;;2.87;;
62798;SDS011;48842;51.046;13.796;2023-04-06T12:53:26;4.50;;;3.50;;
62798;SDS011;48842;51.046;13.796;2023-04-06T12:55:53;3.70;;;3.40;;
62798;SDS011;48842;51.046;13.796;2023-04-06T12:58:18;3.50;;;3.20;;
62798;SDS011;48842;51.046;13.796;2023-04-06T13:00:44;3.43;;;3.13;;
62798;SDS011;48842;51.046;13.796;2023-04-06T13:03:09;4.97;;;3.50;;
62798;SDS011;48842;51.046;13.796;2023-04-06T13:05:34;3.83;;;3.53;;
62798;SDS011;48842;51.046;13.796;2023-04-06T13:07:59;3.70;;;3.40;;
62798;SDS011;48842;51.046;13.796;2023-04-06T13:10:25;3.70;;;3.37;;
62798;SDS011;48842;51.046;13.796;2023-04-06T13:12:51;4.70;;;3.67;;
62798;SDS011;48842;51.046;13.796;2023-04-06T13:15:16;4.10;;;3.70;;
62798;SDS011;48842;51.046;13.796;2023-04-06T13:17:41;3.20;;;3.00;;
62798;SDS011;48842;51.046;13.796;2023-04-06T13:20:07;5.93;;;3.60;;
62798;SDS011;48842;51.046;13.796;2023-04-06T13:22:32;4.20;;;3.53;;
62798;SDS011;48842;51.046;13.796;2023-04-06T13:24:58;3.83;;;3.60;;
62798;SDS011;48842;51.046;13.796;2023-04-06T13:27:23;4.10;;;3.37;;
62798;SDS011;48842;51.046;13.796;2023-04-06T13:29:48;6.53;;;4.30;;
62798;SDS011;48842;51.046;13.796;2023-04-06T13:32:13;4.83;;;3.93;;
62798;SDS011;48842;51.046;13.796;2023-04-06T13:34:39;4.17;;;3.90;;
62798;SDS011;48842;51.046;13.796;2023-04-06T13:37:09;3.63;;;3.43;;
62798;SDS011;48842;51.046;13.796;2023-04-06T13:39:34;4.37;;;3.30;;
62798;SDS011;48842;51.046;13.796;2023-04-06T13:42:00;3.10;;;2.90;;
62798;SDS011;48842;51.046;13.796;2023-04-06T13:44:27;4.97;;;3.10;;
62798;SDS011;48842;51.046;13.796;2023-04-06T13:46:52;3.33;;;3.13;;
62798;SDS011;48842;51.046;13.796;2023-04-06T13:49:18;4.70;;;3.33;;
62798;SDS011;48842;51.046;13.796;2023-04-06T13:51:43;3.30;;;3.03;;
62798;SDS011;48842;51.046;13.796;2023-04-06T13:54:09;4.13;;;3.30;;
62798;SDS011;48842;51.046;13.796;2023-04-06T13:56:34;4.50;;;3.27;;
62798;SDS011;48842;51.046;13.796;2023-04-06T13:58:59;3.53;;;3.00;;
62798;SDS011;48842;51.046;13.796;2023-04-06T14:01:25;4.67;;;3.13;;
62798;SDS011;48842;51.046;13.796;2023-04-06T14:03:51;3.63;;;3.10;;
62798;SDS011;48842;51.046;13.796;2023-04-06T14:06:16;3.40;;;3.10;;
62798;SDS011;48842;51.046;13.796;2023-04-06T14:08:42;4.70;;;3.37;;
62798;SDS011;48842;51.046;13.796;2023-04-06T14:11:10;2.80;;;2.60;;
62798;SDS011;48842;51.046;13.796;2023-04-06T14:13:38;3.30;;;3.03;;
62798;SDS011;48842;51.046;13.796;2023-04-06T14:16:04;4.60;;;3.13;;
62798;SDS011;48842;51.046;13.796;2023-04-06T14:18:29;8.10;;;3.33;;
62798;SDS011;48842;51.046;13.796;2023-04-06T14:20:56;5.63;;;3.00;;
62798;SDS011;48842;51.046;13.796;2023-04-06T14:23:22;3.53;;;3.23;;
62798;SDS011;48842;51.046;13.796;2023-04-06T14:25:50;9.00;;;3.40;;
62798;SDS011;48842;51.046;13.796;2023-04-06T14:28:16;4.10;;;3.70;;
62798;SDS011;48842;51.046;13.796;2023-04-06T14:30:41;6.10;;;3.67;;